Henderson, New York
Current Conditions -  °F | °C
As of 4:56 PM on Tuesday 21 Oct 2014 (Local Time) from KART Reporting Station
Light Rain Light Rain  
Wind Chill: 43°   Ceiling: 700
Heat Index: 48°   Visibility: 5mi
Dew Point: 43°   Wind: 10mph
Humidity: 83%   Direction: 40°NE
Pressure: 29.96"   Gusts: NA
Location:  43.85°N, 76.18°W
Report Text: KART 212056Z AUTO 04009KT 5SM -RA OVC007 09/06 A2996 RMK AO2 RAE06B31 SLP145 P0000 60001 T00890061 53017
Loading
Personal Weather Stations






























Interactive Weather Map New forecast layout! Learn more

10-Day Weather Forecast

Advertisements
Track Severe Weather on mobile